Time;durP1;ratioP1;P1;durP2;ratioP2;P2;SDS_P1;SDS_P2;PMS_P1;PMS_P2;Temp;Humidity;BMP_temperature;BMP_pressure;BME280_temperature;BME280_humidity;BME280_pressure;Samples;Min_cycle;Max_cycle;Signal;HPM_P1;HPM_P2
2023/07/01 00:02:00;;;;;;;6.18;3.35;;;17.00;99.90;;;;;;4210746;28;20856;-62
2023/07/01 00:04:02;;;;;;;3.42;3.13;;;16.90;99.90;;;;;;4194825;28;20590;-62
2023/07/01 00:06:03;;;;;;;5.53;3.72;;;16.90;99.90;;;;;;4208694;28;20028;-60
2023/07/01 00:08:04;;;;;;;5.15;3.15;;;16.90;99.90;;;;;;4210571;28;20036;-61
2023/07/01 00:10:06;;;;;;;8.45;4.05;;;16.90;99.90;;;;;;4214092;28;20035;-62
2023/07/01 00:12:07;;;;;;;3.88;3.42;;;16.90;99.90;;;;;;4194682;28;20417;-61
2023/07/01 00:14:08;;;;;;;3.60;3.03;;;16.90;99.90;;;;;;4213188;28;20024;-61
2023/07/01 00:16:13;;;;;;;6.80;3.70;;;16.90;99.90;;;;;;4194347;28;20012;-61
2023/07/01 00:18:14;;;;;;;3.83;3.45;;;16.90;99.90;;;;;;4213344;28;20066;-63
2023/07/01 00:20:16;;;;;;;7.47;3.15;;;16.90;99.90;;;;;;4212620;28;20561;-63
2023/07/01 00:22:17;;;;;;;5.30;3.53;;;16.80;99.90;;;;;;4212469;28;20032;-61
2023/07/01 00:24:18;;;;;;;6.25;4.20;;;16.80;99.90;;;;;;4213986;28;20124;-63
2023/07/01 00:26:19;;;;;;;6.93;4.60;;;16.70;99.90;;;;;;4212999;28;20565;-62
2023/07/01 00:28:20;;;;;;;5.32;3.60;;;16.80;99.90;;;;;;4213372;28;20040;-62
2023/07/01 00:30:23;;;;;;;4.20;3.80;;;16.70;99.90;;;;;;4213248;28;20458;-61
2023/07/01 00:32:24;;;;;;;8.73;3.63;;;16.70;99.90;;;;;;4214089;28;20020;-61
2023/07/01 00:34:25;;;;;;;6.32;4.13;;;16.70;99.90;;;;;;4211634;28;21489;-62
2023/07/01 00:36:26;;;;;;;8.65;3.88;;;16.60;99.90;;;;;;4214044;28;20036;-59
2023/07/01 00:38:27;;;;;;;5.05;3.95;;;16.50;99.90;;;;;;4212786;28;20020;-61
2023/07/01 00:40:28;;;;;;;7.57;3.65;;;16.50;99.90;;;;;;4213996;28;20410;-62
2023/07/01 00:42:30;;;;;;;10.48;3.78;;;16.40;99.90;;;;;;4212855;28;20057;-67
2023/07/01 00:44:31;;;;;;;6.60;3.97;;;16.40;99.90;;;;;;4213553;28;20077;-61
2023/07/01 00:46:33;;;;;;;6.57;4.00;;;16.40;99.90;;;;;;4212982;28;20472;-62
2023/07/01 00:48:34;;;;;;;5.53;3.70;;;16.40;99.90;;;;;;4212797;28;20048;-63
2023/07/01 00:50:35;;;;;;;6.65;3.90;;;16.30;99.90;;;;;;4211961;28;20052;-62
2023/07/01 00:52:38;;;;;;;4.72;3.92;;;16.20;99.90;;;;;;4211849;28;20044;-61
2023/07/01 00:54:40;;;;;;;6.82;4.50;;;16.20;99.90;;;;;;4213429;28;20028;-62
2023/07/01 00:56:41;;;;;;;7.72;3.70;;;16.20;99.90;;;;;;4212405;28;20513;-61
2023/07/01 00:58:42;;;;;;;6.28;3.92;;;16.20;99.90;;;;;;4213390;28;20116;-61
2023/07/01 01:00:43;;;;;;;4.60;3.60;;;16.10;99.90;;;;;;4212549;28;20074;-64
2023/07/01 01:02:55;;;;;;;4.60;3.40;;;16.10;99.90;;;;;;4213338;28;20081;-62
2023/07/01 01:05:10;;;;;;;6.15;3.72;;;16.10;99.90;;;;;;4211347;28;20028;-63
2023/07/01 01:07:32;;;;;;;10.07;4.00;;;16.00;99.90;;;;;;4213503;28;20522;-64
2023/07/01 01:09:48;;;;;;;7.80;4.05;;;16.00;99.90;;;;;;4212477;28;20053;-61
2023/07/01 01:11:53;;;;;;;5.30;3.72;;;16.00;99.90;;;;;;4196518;28;20040;-63
2023/07/01 01:13:58;;;;;;;4.82;3.45;;;16.00;99.90;;;;;;4195082;28;20109;-61
2023/07/01 01:16:02;;;;;;;4.97;3.53;;;16.00;99.90;;;;;;4197132;28;20037;-65
2023/07/01 01:18:05;;;;;;;8.25;3.75;;;16.00;99.90;;;;;;4211366;28;20024;-61
2023/07/01 01:20:12;;;;;;;6.80;3.78;;;16.00;99.90;;;;;;4211561;28;20429;-61
2023/07/01 01:22:17;;;;;;;7.35;3.58;;;16.00;99.90;;;;;;4211978;28;20028;-62
2023/07/01 01:24:20;;;;;;;5.22;3.88;;;16.00;99.90;;;;;;4213243;28;20020;-64
2023/07/01 01:26:26;;;;;;;7.82;5.28;;;16.00;99.90;;;;;;4211946;28;20023;-60
2023/07/01 01:28:27;;;;;;;10.18;7.20;;;15.90;99.90;;;;;;4194560;28;20094;-70
2023/07/01 01:30:32;;;;;;;10.63;5.80;;;15.70;99.90;;;;;;4212282;28;20032;-60
2023/07/01 01:32:34;;;;;;;9.82;5.47;;;15.60;99.90;;;;;;4212973;28;20040;-66
2023/07/01 01:34:35;;;;;;;6.15;4.45;;;15.50;99.90;;;;;;4210328;28;20548;-67
2023/07/01 01:36:54;;;;;;;6.63;4.57;;;15.40;99.90;;;;;;4213167;28;20081;-66
2023/07/01 01:39:00;;;;;;;8.60;4.93;;;15.40;99.90;;;;;;4211842;28;20097;-67
2023/07/01 01:41:22;;;;;;;6.63;4.50;;;15.30;99.90;;;;;;4213124;28;20074;-60
2023/07/01 01:44:03;;;;;;;8.10;3.80;;;15.30;99.90;;;;;;4211793;28;20035;-61
2023/07/01 01:46:05;;;;;;;7.20;4.43;;;15.20;99.90;;;;;;4211494;28;20093;-61
2023/07/01 01:48:09;;;;;;;5.30;4.38;;;15.10;99.90;;;;;;4211471;28;20051;-61
2023/07/01 01:50:12;;;;;;;7.03;5.03;;;15.10;99.90;;;;;;4211966;28;20043;-63
2023/07/01 01:52:15;;;;;;;5.78;5.00;;;15.00;99.90;;;;;;4211244;28;20035;-62
2023/07/01 01:54:17;;;;;;;5.15;4.63;;;15.00;99.90;;;;;;4211968;28;20044;-62
2023/07/01 01:56:19;;;;;;;7.78;4.80;;;15.00;99.90;;;;;;4211299;28;20024;-61
2023/07/01 01:58:20;;;;;;;6.82;4.13;;;15.00;99.90;;;;;;4211947;28;20044;-64
2023/07/01 02:00:22;;;;;;;6.13;4.35;;;14.90;99.90;;;;;;4211268;28;20048;-62
2023/07/01 02:02:23;;;;;;;6.88;4.03;;;15.00;99.90;;;;;;4212333;28;20027;-63
2023/07/01 02:04:24;;;;;;;8.75;3.67;;;15.00;99.90;;;;;;4211300;28;20024;-61
2023/07/01 02:06:25;;;;;;;5.53;3.85;;;15.00;99.90;;;;;;4211197;28;20087;-62
2023/07/01 02:08:26;;;;;;;7.72;4.45;;;14.80;99.90;;;;;;4211809;28;20031;-62
2023/07/01 02:10:28;;;;;;;5.78;4.82;;;14.70;99.90;;;;;;4210738;28;20105;-60
2023/07/01 02:12:29;;;;;;;7.35;4.70;;;14.70;99.90;;;;;;4211073;28;20040;-63
2023/07/01 02:14:31;;;;;;;6.30;4.65;;;14.60;99.90;;;;;;4211136;28;20464;-62
2023/07/01 02:16:34;;;;;;;7.50;4.65;;;14.50;99.90;;;;;;4212415;28;20031;-61
2023/07/01 02:18:35;;;;;;;7.28;4.68;;;14.50;99.90;;;;;;4210720;28;20373;-63
2023/07/01 02:20:36;;;;;;;5.72;4.35;;;14.40;99.90;;;;;;4211605;28;20093;-60
2023/07/01 02:22:37;;;;;;;7.18;4.75;;;14.40;99.90;;;;;;4211294;28;20032;-60
2023/07/01 02:24:38;;;;;;;8.50;5.47;;;14.30;99.90;;;;;;4211585;28;20109;-62
2023/07/01 02:26:39;;;;;;;12.10;6.07;;;14.30;99.90;;;;;;4210011;28;20499;-64
2023/07/01 02:28:40;;;;;;;7.90;5.07;;;14.30;99.90;;;;;;4212078;28;20036;-60
2023/07/01 02:30:42;;;;;;;15.23;6.05;;;14.30;99.90;;;;;;4211124;28;20058;-65
2023/07/01 02:32:43;;;;;;;7.35;5.70;;;14.30;99.90;;;;;;4193613;28;20079;-62
2023/07/01 02:34:44;;;;;;;8.82;5.95;;;14.20;99.90;;;;;;4210949;28;20420;-62
2023/07/01 02:36:45;;;;;;;11.68;6.38;;;14.30;99.90;;;;;;4210877;28;20065;-60
2023/07/01 02:38:46;;;;;;;7.15;5.80;;;14.30;99.90;;;;;;4211296;28;20020;-61
2023/07/01 02:40:47;;;;;;;8.55;5.25;;;14.30;99.90;;;;;;4211185;28;20558;-60
2023/07/01 02:42:49;;;;;;;7.68;5.15;;;14.30;99.90;;;;;;4211343;28;20086;-60
2023/07/01 02:44:50;;;;;;;8.90;5.75;;;14.30;99.90;;;;;;4210761;28;20028;-60
2023/07/01 02:46:52;;;;;;;7.45;5.50;;;14.30;99.90;;;;;;4211727;28;20085;-60
2023/07/01 02:48:54;;;;;;;11.38;6.35;;;14.40;99.90;;;;;;4209679;28;20056;-60
2023/07/01 02:50:57;;;;;;;8.45;6.57;;;14.50;99.90;;;;;;4211796;28;20024;-60
2023/07/01 02:52:58;;;;;;;11.35;6.57;;;14.60;99.90;;;;;;4210157;28;20024;-61
2023/07/01 02:54:59;;;;;;;17.90;7.15;;;14.70;99.90;;;;;;4211767;28;20077;-60
2023/07/01 02:57:00;;;;;;;11.25;6.75;;;14.80;99.90;;;;;;4210510;28;20028;-60
2023/07/01 02:59:03;;;;;;;12.80;7.20;;;14.90;99.90;;;;;;4210634;28;20236;-60
2023/07/01 03:01:04;;;;;;;10.93;7.03;;;15.00;99.90;;;;;;4210959;28;20028;-60
2023/07/01 03:03:08;;;;;;;15.52;6.72;;;15.10;99.90;;;;;;4211506;28;20423;-60
2023/07/01 03:05:09;;;;;;;11.43;6.82;;;15.20;99.90;;;;;;4209772;28;20450;-62
2023/07/01 03:07:11;;;;;;;9.75;6.55;;;15.20;99.90;;;;;;4211296;28;20081;-64
2023/07/01 03:09:12;;;;;;;9.02;7.22;;;15.30;99.90;;;;;;4209760;28;20040;-62
2023/07/01 03:11:13;;;;;;;13.25;7.18;;;15.40;99.90;;;;;;4210753;28;20028;-62
2023/07/01 03:13:16;;;;;;;9.80;6.53;;;15.60;99.90;;;;;;4211124;28;20032;-62
2023/07/01 03:15:17;;;;;;;9.70;6.25;;;15.80;99.90;;;;;;4210419;28;20082;-65
2023/07/01 03:17:18;;;;;;;9.85;5.18;;;16.10;99.90;;;;;;4211250;28;20028;-60
2023/07/01 03:19:19;;;;;;;9.48;5.65;;;16.40;99.90;;;;;;4208999;28;20032;-62
2023/07/01 03:21:20;;;;;;;10.48;5.78;;;16.70;99.90;;;;;;4210744;28;20028;-64
2023/07/01 03:23:21;;;;;;;11.40;5.43;;;16.90;99.90;;;;;;4209763;28;20441;-61
2023/07/01 03:25:24;;;;;;;9.68;6.30;;;17.10;99.90;;;;;;4211197;28;20036;-65
2023/07/01 03:27:25;;;;;;;12.00;6.18;;;17.30;99.90;;;;;;4193505;28;20472;-63
2023/07/01 03:29:26;;;;;;;14.60;7.47;;;17.70;99.90;;;;;;4200468;28;20513;-61
2023/07/01 03:31:27;;;;;;;10.80;6.40;;;18.20;99.90;;;;;;4209929;28;20039;-61
2023/07/01 03:33:28;;;;;;;10.32;4.95;;;18.60;99.90;;;;;;4209480;28;20054;-61
2023/07/01 03:35:29;;;;;;;12.85;5.25;;;18.90;99.90;;;;;;4209484;28;20032;-65
2023/07/01 03:37:31;;;;;;;9.00;4.93;;;19.10;99.90;;;;;;4209888;28;20040;-62
2023/07/01 03:39:32;;;;;;;7.63;4.30;;;19.40;99.90;;;;;;4210240;28;20077;-65
2023/07/01 03:41:33;;;;;;;7.22;4.43;;;19.60;99.90;;;;;;4210161;28;20029;-72
2023/07/01 03:43:34;;;;;;;8.45;4.88;;;19.90;99.90;;;;;;4191573;28;20032;-62
2023/07/01 03:45:36;;;;;;;5.15;4.65;;;20.20;99.90;;;;;;4210149;28;20373;-63
2023/07/01 03:47:46;;;;;;;8.90;4.95;;;20.50;99.90;;;;;;4210271;28;20113;-66
2023/07/01 03:49:47;;;;;;;9.13;5.75;;;20.80;99.90;;;;;;4208746;28;20101;-62
2023/07/01 03:51:50;;;;;;;18.60;6.53;;;21.00;99.90;;;;;;4209879;28;20044;-62
2023/07/01 03:53:51;;;;;;;5.63;4.80;;;21.20;99.90;;;;;;4209071;28;20048;-62
2023/07/01 03:55:52;;;;;;;11.13;5.93;;;21.40;99.90;;;;;;4210972;28;20028;-62
2023/07/01 03:57:53;;;;;;;7.22;5.20;;;21.60;99.90;;;;;;4209443;28;20090;-61
2023/07/01 03:59:55;;;;;;;7.93;4.72;;;21.90;99.90;;;;;;4210896;28;20069;-67
2023/07/01 04:01:56;;;;;;;8.88;5.07;;;22.20;99.90;;;;;;4210003;28;20032;-66
2023/07/01 04:03:57;;;;;;;7.25;4.97;;;22.60;99.90;;;;;;4210742;28;20017;-63
2023/07/01 04:05:58;;;;;;;7.93;5.55;;;22.90;99.90;;;;;;4190976;28;20040;-63
2023/07/01 04:08:00;;;;;;;10.75;5.68;;;23.10;99.90;;;;;;4209901;28;20066;-66
2023/07/01 04:10:02;;;;;;;8.38;5.15;;;23.30;99.90;;;;;;4209265;28;20572;-62
2023/07/01 04:12:04;;;;;;;8.60;4.90;;;23.20;99.90;;;;;;4210278;28;20094;-69
2023/07/01 04:14:05;;;;;;;10.70;6.20;;;23.10;99.90;;;;;;4209666;28;20020;-62
2023/07/01 04:16:06;;;;;;;8.20;5.75;;;23.00;99.90;;;;;;4208751;28;20044;-63
2023/07/01 04:18:07;;;;;;;8.55;5.47;;;23.10;99.90;;;;;;4210030;28;20037;-63
2023/07/01 04:20:09;;;;;;;9.02;4.88;;;23.00;99.90;;;;;;4209183;28;20449;-61
2023/07/01 04:22:10;;;;;;;9.63;5.47;;;23.40;99.90;;;;;;4209334;28;20074;-63
2023/07/01 04:24:12;;;;;;;8.77;5.15;;;23.90;99.90;;;;;;4208114;28;20093;-62
2023/07/01 04:26:13;;;;;;;12.85;4.90;;;24.50;99.90;;;;;;4210445;28;20588;-64
2023/07/01 04:28:14;;;;;;;13.10;5.10;;;25.10;99.90;;;;;;4209048;28;20879;-61
2023/07/01 04:30:16;;;;;;;6.30;4.82;;;25.30;99.90;;;;;;4210739;28;20434;-62
2023/07/01 04:32:17;;;;;;;9.93;5.25;;;25.50;99.90;;;;;;4208945;28;20056;-62
2023/07/01 04:34:18;;;;;;;7.90;4.90;;;25.50;99.90;;;;;;4209454;28;20435;-61
2023/07/01 04:36:19;;;;;;;10.13;4.63;;;25.80;99.90;;;;;;4209274;28;20338;-62
2023/07/01 04:38:21;;;;;;;9.93;4.50;;;26.10;99.90;;;;;;4210589;28;20036;-66
2023/07/01 04:40:22;;;;;;;9.48;3.83;;;26.30;99.90;;;;;;4208720;28;20042;-62
2023/07/01 04:42:23;;;;;;;8.65;4.00;;;26.50;99.90;;;;;;4210011;28;20093;-63
2023/07/01 04:44:24;;;;;;;4.35;3.58;;;27.00;99.80;;;;;;4207842;28;20024;-62
2023/07/01 04:46:25;;;;;;;5.75;3.22;;;27.50;99.20;;;;;;4209523;28;20024;-61
2023/07/01 04:48:26;;;;;;;7.20;3.53;;;27.50;98.50;;;;;;4208787;28;20060;-62
2023/07/01 04:50:27;;;;;;;6.05;3.35;;;27.30;98.40;;;;;;4209105;28;20028;-62
2023/07/01 04:52:29;;;;;;;8.02;3.72;;;27.30;98.10;;;;;;4209123;28;20101;-61
2023/07/01 04:54:30;;;;;;;6.95;3.20;;;27.40;97.90;;;;;;4210900;28;20024;-61
2023/07/01 04:56:31;;;;;;;7.15;3.35;;;27.50;97.50;;;;;;4211410;28;20097;-61
2023/07/01 04:58:33;;;;;;;7.60;4.20;;;27.60;97.00;;;;;;4211714;28;20490;-62
2023/07/01 05:00:34;;;;;;;5.47;3.65;;;27.80;96.80;;;;;;4212678;28;20093;-61
2023/07/01 05:02:36;;;;;;;5.03;3.70;;;28.00;96.50;;;;;;4211725;28;20366;-61
2023/07/01 05:04:37;;;;;;;5.30;3.08;;;27.80;96.20;;;;;;4212861;28;20035;-60
2023/07/01 05:06:39;;;;;;;6.90;4.18;;;27.90;96.10;;;;;;4211541;28;20545;-62
2023/07/01 05:08:40;;;;;;;7.50;3.72;;;28.10;95.90;;;;;;4212084;28;20047;-61
2023/07/01 05:10:42;;;;;;;7.38;5.25;;;27.90;95.70;;;;;;4211437;28;20028;-61
2023/07/01 05:12:43;;;;;;;7.20;5.20;;;27.40;95.40;;;;;;4212530;28;20105;-63
2023/07/01 05:14:44;;;;;;;8.18;5.20;;;27.10;96.00;;;;;;4211609;28;20028;-63
2023/07/01 05:16:45;;;;;;;14.63;5.80;;;26.90;96.20;;;;;;4211917;28;20035;-63
2023/07/01 05:18:46;;;;;;;11.98;5.70;;;27.20;96.20;;;;;;4211763;28;20544;-62
2023/07/01 05:20:47;;;;;;;12.20;5.60;;;27.70;96.10;;;;;;4211778;28;20028;-61
2023/07/01 05:22:48;;;;;;;11.02;6.80;;;27.80;95.60;;;;;;4212308;28;20031;-59
2023/07/01 05:24:49;;;;;;;14.43;6.50;;;28.00;95.40;;;;;;4211313;28;20426;-63
2023/07/01 05:26:51;;;;;;;15.50;7.07;;;27.80;95.40;;;;;;4211693;28;20093;-62
2023/07/01 05:28:52;;;;;;;13.43;6.88;;;28.00;95.40;;;;;;4209943;28;20427;-62
2023/07/01 05:30:53;;;;;;;12.15;6.57;;;27.60;95.30;;;;;;4212196;28;20050;-62
2023/07/01 05:32:55;;;;;;;11.55;6.82;;;27.40;95.30;;;;;;4212243;28;20040;-61
2023/07/01 05:34:56;;;;;;;16.08;7.28;;;27.10;95.60;;;;;;4209138;28;20024;-63
2023/07/01 05:36:57;;;;;;;14.68;5.78;;;27.10;95.60;;;;;;4196044;28;20044;-61
2023/07/01 05:38:58;;;;;;;12.32;5.88;;;27.50;95.50;;;;;;4212490;28;20820;-62
2023/07/01 05:40:59;;;;;;;13.45;5.97;;;28.00;95.10;;;;;;4211630;28;20134;-62
2023/07/01 05:43:01;;;;;;;15.32;5.63;;;27.50;94.70;;;;;;4211245;28;20028;-62
2023/07/01 05:45:02;;;;;;;17.80;5.97;;;26.50;95.00;;;;;;4211848;28;20016;-62
2023/07/01 05:47:03;;;;;;;10.77;5.82;;;26.20;95.50;;;;;;4211435;28;20505;-63
2023/07/01 05:49:04;;;;;;;10.48;5.32;;;26.40;95.70;;;;;;4211445;28;20043;-61
2023/07/01 05:51:06;;;;;;;16.45;6.40;;;26.60;95.90;;;;;;4211583;28;20020;-61
2023/07/01 05:53:08;;;;;;;10.40;5.20;;;26.80;95.50;;;;;;4193722;28;20182;-62
2023/07/01 05:55:09;;;;;;;11.50;5.97;;;26.30;95.50;;;;;;4210799;28;20077;-61
2023/07/01 05:57:10;;;;;;;11.30;5.85;;;25.90;95.90;;;;;;4211764;28;20522;-61
2023/07/01 05:59:13;;;;;;;14.77;6.20;;;25.40;96.40;;;;;;4210480;28;20127;-62
2023/07/01 06:01:14;;;;;;;13.07;5.60;;;24.90;97.10;;;;;;4212830;28;20361;-64
2023/07/01 06:03:15;;;;;;;10.88;5.25;;;24.70;97.40;;;;;;4209591;28;20040;-64
2023/07/01 06:05:16;;;;;;;11.77;5.75;;;24.60;97.70;;;;;;4210460;28;20037;-67
2023/07/01 06:07:17;;;;;;;12.63;5.72;;;24.50;97.70;;;;;;4210819;28;20081;-66
2023/07/01 06:09:18;;;;;;;10.15;5.85;;;24.40;98.20;;;;;;4211975;28;20104;-64
2023/07/01 06:11:19;;;;;;;12.80;5.93;;;24.40;97.90;;;;;;4210906;28;20032;-69
2023/07/01 06:13:20;;;;;;;16.30;6.75;;;24.40;98.00;;;;;;4211149;28;20091;-63
2023/07/01 06:15:22;;;;;;;11.48;6.05;;;24.40;98.10;;;;;;4211425;28;20032;-66
2023/07/01 06:17:23;;;;;;;11.73;5.72;;;24.10;98.80;;;;;;4211626;28;20081;-66
2023/07/01 06:19:24;;;;;;;10.80;6.07;;;24.20;99.20;;;;;;4210108;28;20124;-65
2023/07/01 06:21:25;;;;;;;9.45;5.32;;;24.50;99.00;;;;;;4211109;28;20078;-66
2023/07/01 06:23:27;;;;;;;8.13;5.53;;;24.20;99.00;;;;;;4211475;28;20120;-64
2023/07/01 06:25:28;;;;;;;7.63;4.95;;;24.50;99.10;;;;;;4210660;28;20062;-68
2023/07/01 06:27:29;;;;;;;11.10;5.07;;;25.40;98.60;;;;;;4212270;28;20040;-68
2023/07/01 06:29:30;;;;;;;12.18;4.75;;;25.50;98.10;;;;;;4210284;28;20032;-60
2023/07/01 06:31:31;;;;;;;7.50;4.50;;;25.20;98.10;;;;;;4212385;28;20081;-62
2023/07/01 06:33:38;;;;;;;8.80;4.60;;;24.70;98.70;;;;;;4209664;28;20074;-63
2023/07/01 06:35:41;;;;;;;10.02;5.57;;;24.40;99.10;;;;;;4195116;28;20082;-63
2023/07/01 06:37:43;;;;;;;11.93;5.15;;;24.30;99.50;;;;;;4192926;28;20079;-64
2023/07/01 06:39:44;;;;;;;9.23;4.43;;;24.50;99.50;;;;;;4205941;28;20036;-60
2023/07/01 06:41:45;;;;;;;11.18;4.88;;;24.60;99.70;;;;;;4209752;28;20108;-60
2023/07/01 06:43:46;;;;;;;9.45;4.57;;;24.30;99.90;;;;;;4211473;28;20040;-60
2023/07/01 06:45:48;;;;;;;5.90;4.47;;;24.40;99.90;;;;;;4209631;28;20020;-60
2023/07/01 06:47:49;;;;;;;8.77;4.60;;;24.50;99.90;;;;;;4210901;28;20103;-61
2023/07/01 06:49:50;;;;;;;5.90;4.28;;;24.50;99.90;;;;;;4209968;28;20089;-60
2023/07/01 06:51:51;;;;;;;6.40;4.90;;;24.50;99.90;;;;;;4210143;28;20043;-61
2023/07/01 06:53:52;;;;;;;7.80;5.07;;;24.60;99.90;;;;;;4210982;28;20480;-58
2023/07/01 06:55:53;;;;;;;5.85;4.55;;;24.60;99.90;;;;;;4209442;28;21911;-60
2023/07/01 06:57:55;;;;;;;7.35;4.60;;;24.70;99.90;;;;;;4210865;28;20468;-61
2023/07/01 06:59:56;;;;;;;10.85;4.90;;;24.70;99.90;;;;;;4208425;28;20035;-61
2023/07/01 07:01:57;;;;;;;5.90;4.18;;;24.50;99.90;;;;;;4209868;28;20032;-60
2023/07/01 07:03:58;;;;;;;6.28;4.50;;;24.60;99.90;;;;;;4209619;28;20090;-61
2023/07/01 07:06:00;;;;;;;7.95;4.53;;;24.40;99.90;;;;;;4211175;28;20438;-61
2023/07/01 07:08:02;;;;;;;7.20;4.68;;;24.30;99.90;;;;;;4210446;28;20032;-60
2023/07/01 07:10:04;;;;;;;4.88;4.22;;;24.40;99.90;;;;;;4211228;28;20529;-59
2023/07/01 07:12:06;;;;;;;4.97;4.47;;;24.50;99.90;;;;;;4209855;28;20020;-63
2023/07/01 07:14:07;;;;;;;4.97;3.30;;;24.70;99.90;;;;;;4211246;28;20466;-60
2023/07/01 07:16:08;;;;;;;4.50;3.58;;;24.90;99.90;;;;;;4209967;28;20039;-63
2023/07/01 07:18:10;;;;;;;4.18;3.55;;;24.50;99.90;;;;;;4209383;28;20032;-61
2023/07/01 07:20:11;;;;;;;4.80;3.83;;;24.40;99.90;;;;;;4213973;28;20116;-61
2023/07/01 07:22:13;;;;;;;4.28;2.95;;;24.60;99.90;;;;;;4209026;28;20037;-67
2023/07/01 07:24:14;;;;;;;4.80;3.63;;;24.60;99.90;;;;;;4209723;28;20093;-60
2023/07/01 07:26:15;;;;;;;5.03;3.17;;;24.70;99.90;;;;;;4209589;28;20533;-59
2023/07/01 07:28:16;;;;;;;4.50;2.97;;;24.60;99.90;;;;;;4209945;28;20036;-61
2023/07/01 07:30:18;;;;;;;6.35;3.13;;;24.50;99.90;;;;;;4208647;28;20566;-60
2023/07/01 07:32:19;;;;;;;4.32;3.50;;;24.50;99.90;;;;;;4210989;28;20028;-62
2023/07/01 07:34:20;;;;;;;4.97;3.08;;;24.70;99.90;;;;;;4209922;28;20051;-64
2023/07/01 07:36:21;;;;;;;4.10;2.83;;;24.80;99.90;;;;;;4210721;28;20036;-63
2023/07/01 07:38:22;;;;;;;2.95;2.60;;;24.90;99.90;;;;;;4209340;28;20039;-64
2023/07/01 07:40:23;;;;;;;2.35;2.17;;;25.00;99.90;;;;;;4211075;28;20024;-63
2023/07/01 07:42:25;;;;;;;2.55;2.35;;;24.80;99.90;;;;;;4209630;28;20081;-61
2023/07/01 07:44:26;;;;;;;2.80;2.50;;;24.70;99.90;;;;;;4210261;28;20127;-61
2023/07/01 07:46:27;;;;;;;5.65;2.70;;;24.90;99.90;;;;;;4209721;28;20028;-63
2023/07/01 07:48:28;;;;;;;3.25;2.50;;;25.10;99.90;;;;;;4210153;28;20048;-67
2023/07/01 07:50:29;;;;;;;2.88;2.17;;;25.20;99.90;;;;;;4209108;28;20074;-68
2023/07/01 07:52:30;;;;;;;3.38;2.10;;;25.40;99.90;;;;;;4209998;28;20050;-70
2023/07/01 07:54:32;;;;;;;2.55;2.35;;;25.20;99.90;;;;;;4209817;28;20036;-64
2023/07/01 07:56:33;;;;;;;8.00;2.35;;;25.00;99.90;;;;;;4210061;28;20066;-66
2023/07/01 07:58:34;;;;;;;2.60;2.40;;;25.20;99.90;;;;;;4209850;28;20109;-66
2023/07/01 08:00:35;;;;;;;3.97;2.20;;;25.10;99.90;;;;;;4208871;28;20377;-63
2023/07/01 08:02:42;;;;;;;4.78;2.55;;;25.00;99.90;;;;;;4210057;28;20048;-64
2023/07/01 08:04:43;;;;;;;6.43;2.88;;;25.10;99.90;;;;;;4212574;28;20043;-65
2023/07/01 08:06:44;;;;;;;3.63;2.22;;;25.20;99.90;;;;;;4227630;28;20310;-61
2023/07/01 08:08:45;;;;;;;3.08;2.78;;;25.40;99.90;;;;;;4210744;28;20077;-61
2023/07/01 08:10:46;;;;;;;2.92;2.42;;;25.60;99.90;;;;;;4210573;28;20464;-63
2023/07/01 08:12:47;;;;;;;2.65;2.20;;;25.80;99.70;;;;;;4190732;28;20041;-61
2023/07/01 08:14:48;;;;;;;5.90;2.83;;;25.70;99.40;;;;;;4210309;28;20032;-62
2023/07/01 08:16:49;;;;;;;3.83;2.33;;;25.80;99.10;;;;;;4209462;28;20085;-61
2023/07/01 08:18:51;;;;;;;2.95;1.92;;;25.70;98.80;;;;;;4209932;28;20032;-61
2023/07/01 08:20:52;;;;;;;2.85;2.00;;;25.80;98.40;;;;;;4208832;28;20032;-62
2023/07/01 08:22:53;;;;;;;4.68;2.47;;;25.90;98.50;;;;;;4209999;28;20036;-60
2023/07/01 08:24:54;;;;;;;5.85;2.45;;;26.10;98.30;;;;;;4208441;28;20032;-62
2023/07/01 08:26:55;;;;;;;1.70;1.60;;;26.20;97.80;;;;;;4208041;28;20082;-69
2023/07/01 08:28:56;;;;;;;1.65;1.38;;;26.30;96.90;;;;;;4210154;28;20036;-63
2023/07/01 08:30:58;;;;;;;3.95;1.35;;;26.40;96.00;;;;;;4211823;28;20036;-60
2023/07/01 08:32:59;;;;;;;3.15;1.63;;;26.50;95.30;;;;;;4212362;28;20462;-71
2023/07/01 08:35:00;;;;;;;2.15;1.67;;;26.50;94.10;;;;;;4211941;28;20058;-70
2023/07/01 08:37:02;;;;;;;1.55;1.45;;;26.40;93.70;;;;;;4212554;28;20028;-62
2023/07/01 08:39:03;;;;;;;4.00;1.52;;;26.70;93.60;;;;;;4211019;28;20036;-62
2023/07/01 08:41:07;;;;;;;4.45;1.30;;;27.00;93.00;;;;;;4213004;28;20571;-61
2023/07/01 08:43:10;;;;;;;3.13;1.48;;;27.20;92.80;;;;;;4212694;28;20667;-60
2023/07/01 08:45:12;;;;;;;2.13;1.20;;;27.20;93.00;;;;;;4213410;28;20061;-61
2023/07/01 08:47:15;;;;;;;1.88;1.00;;;27.20;92.60;;;;;;4211586;28;20040;-61
2023/07/01 08:49:21;;;;;;;1.25;1.15;;;27.10;91.70;;;;;;4212482;28;20077;-61
2023/07/01 08:51:31;;;;;;;1.13;0.98;;;27.10;91.00;;;;;;4212471;28;20715;-60
2023/07/01 08:53:33;;;;;;;;;;;27.10;90.70;;;;;;4213575;28;20101;-61
2023/07/01 08:55:34;;;;;;;1.75;1.10;;;27.00;90.50;;;;;;4211977;28;20363;-60
2023/07/01 08:57:41;;;;;;;1.15;1.05;;;27.10;90.60;;;;;;4213228;28;20062;-60
2023/07/01 08:59:43;;;;;;;1.25;1.15;;;27.10;90.50;;;;;;4212403;28;20559;-61
2023/07/01 09:01:45;;;;;;;1.10;1.08;;;27.10;90.30;;;;;;4213044;28;20061;-61
2023/07/01 09:03:47;;;;;;;4.13;1.40;;;27.20;90.20;;;;;;4211701;28;20073;-63
2023/07/01 09:05:49;;;;;;;1.40;1.10;;;27.10;90.30;;;;;;4212585;28;20483;-61
2023/07/01 09:07:50;;;;;;;1.25;1.00;;;27.20;90.60;;;;;;4212959;28;20028;-61
2023/07/01 09:09:51;;;;;;;1.45;1.27;;;27.50;90.30;;;;;;4211939;28;20044;-61
2023/07/01 09:11:53;;;;;;;3.53;1.23;;;27.40;89.70;;;;;;4212583;28;20109;-61
2023/07/01 09:13:57;;;;;;;1.45;1.17;;;27.30;89.20;;;;;;4228065;28;20109;-60
2023/07/01 09:15:58;;;;;;;1.38;1.23;;;27.20;88.90;;;;;;4220237;28;20036;-61
2023/07/01 09:18:04;;;;;;;1.67;1.38;;;27.20;89.80;;;;;;4210805;28;20560;-61
2023/07/01 09:20:11;;;;;;;2.47;1.08;;;27.20;89.40;;;;;;4212838;28;20097;-61
2023/07/01 09:22:12;;;;;;;2.70;1.35;;;27.10;89.30;;;;;;4211904;28;20475;-62
2023/07/01 09:24:13;;;;;;;2.38;1.40;;;27.00;89.60;;;;;;4211538;28;20093;-62
2023/07/01 09:26:17;;;;;;;2.63;1.40;;;27.10;89.70;;;;;;4192843;28;20040;-59
2023/07/01 09:28:30;;;;;;;2.80;1.20;;;27.10;89.00;;;;;;4212073;28;20035;-61
2023/07/01 09:30:32;;;;;;;3.67;1.20;;;27.20;87.70;;;;;;4211524;28;20024;-60
2023/07/01 09:32:34;;;;;;;1.17;1.08;;;27.00;87.80;;;;;;4211811;28;20097;-59
2023/07/01 09:34:56;;;;;;;1.05;0.80;;;26.90;87.40;;;;;;4211045;28;20373;-60
2023/07/01 09:37:15;;;;;;;1.40;1.30;;;26.80;85.20;;;;;;4212039;28;20055;-65
2023/07/01 09:39:32;;;;;;;1.27;1.17;;;26.80;86.90;;;;;;4210495;28;20040;-62
2023/07/01 09:41:33;;;;;;;3.08;1.30;;;26.90;87.10;;;;;;4211875;28;20081;-60
2023/07/01 09:43:34;;;;;;;1.20;1.10;;;27.00;87.00;;;;;;4211580;28;20028;-61
2023/07/01 09:45:35;;;;;;;1.65;1.30;;;27.00;86.80;;;;;;4211870;28;20423;-60
2023/07/01 09:47:36;;;;;;;3.85;1.00;;;27.00;87.20;;;;;;4210855;28;20380;-64
2023/07/01 09:49:42;;;;;;;1.35;1.00;;;27.20;87.60;;;;;;4211431;28;20125;-65
2023/07/01 09:51:48;;;;;;;1.67;1.58;;;27.50;87.50;;;;;;4211587;28;20428;-62
2023/07/01 09:53:50;;;;;;;0.98;0.88;;;27.50;87.70;;;;;;4210966;28;20690;-60
2023/07/01 09:55:51;;;;;;;1.85;1.30;;;27.60;87.90;;;;;;4211475;28;20533;-59
2023/07/01 09:57:53;;;;;;;2.88;1.17;;;27.70;88.60;;;;;;4211090;28;20093;-61
2023/07/01 09:59:54;;;;;;;1.70;1.60;;;27.70;89.10;;;;;;4211125;28;20028;-59
2023/07/01 10:01:57;;;;;;;2.05;1.13;;;27.50;88.30;;;;;;4210399;28;20482;-60
2023/07/01 10:03:58;;;;;;;1.48;1.38;;;27.40;88.10;;;;;;4211080;28;20044;-60
2023/07/01 10:05:59;;;;;;;2.13;1.05;;;27.30;88.10;;;;;;4210852;28;20040;-60
2023/07/01 10:08:01;;;;;;;1.95;1.25;;;27.30;88.00;;;;;;4211082;28;20101;-60
2023/07/01 10:10:02;;;;;;;1.80;1.70;;;27.20;88.30;;;;;;4210340;28;20036;-61
2023/07/01 10:12:05;;;;;;;3.35;1.48;;;27.30;88.60;;;;;;4212091;28;20028;-62
2023/07/01 10:14:07;;;;;;;2.88;1.30;;;27.30;87.30;;;;;;4209985;28;20052;-60
2023/07/01 10:16:08;;;;;;;1.98;1.08;;;27.10;88.50;;;;;;4211289;28;20040;-64
2023/07/01 10:18:23;;;;;;;1.75;1.40;;;27.00;88.60;;;;;;4210751;28;20035;-60
2023/07/01 10:20:29;;;;;;;4.38;1.42;;;27.20;88.40;;;;;;4212087;28;20093;-60
2023/07/01 10:22:31;;;;;;;2.40;1.40;;;27.40;89.00;;;;;;4210752;28;20089;-61
2023/07/01 10:24:38;;;;;;;2.55;1.30;;;27.30;88.00;;;;;;4211772;28;20161;-60
2023/07/01 10:26:46;;;;;;;1.15;0.98;;;27.00;87.40;;;;;;4209643;28;20478;-68
2023/07/01 10:28:48;;;;;;;2.20;1.33;;;26.90;88.40;;;;;;4211886;28;20028;-62
2023/07/01 10:30:49;;;;;;;1.60;1.33;;;26.90;88.20;;;;;;4210806;28;20036;-63
2023/07/01 10:32:50;;;;;;;2.83;1.20;;;26.90;89.00;;;;;;4211437;28;20036;-60
2023/07/01 10:34:54;;;;;;;1.40;1.17;;;27.00;89.30;;;;;;4210773;28;20139;-62
2023/07/01 10:37:15;;;;;;;4.65;1.33;;;27.20;87.90;;;;;;4211718;28;20016;-65